Time;durP1;ratioP1;P1;durP2;ratioP2;P2;SDS_P1;SDS_P2;PMS_P1;PMS_P2;Temp;Humidity;BMP_temperature;BMP_pressure;BME280_temperature;BME280_humidity;BME280_pressure;Samples;Min_cycle;Max_cycle;Signal;HPM_P1;HPM_P2
2022/10/01 00:00:47;;;;;;;14.03;9.03;;;13.00;99.90;;;;;;5198485;28;20041;-77
2022/10/01 00:03:22;;;;;;;14.30;11.02;;;13.10;99.90;;;;;;5235562;28;20028;-74
2022/10/01 00:06:01;;;;;;;15.13;11.20;;;13.10;99.90;;;;;;5228297;28;20043;-73
2022/10/01 00:08:32;;;;;;;14.32;10.57;;;13.10;99.90;;;;;;5219204;28;20029;-74
2022/10/01 00:11:13;;;;;;;14.10;11.68;;;13.10;99.90;;;;;;5199815;28;21068;-75
2022/10/01 00:13:45;;;;;;;14.68;11.48;;;13.00;99.90;;;;;;5200906;28;20033;-76
2022/10/01 00:16:22;;;;;;;13.95;11.05;;;13.00;99.90;;;;;;5229615;28;20302;-74
2022/10/01 00:18:56;;;;;;;14.05;10.38;;;13.00;99.90;;;;;;5215108;28;20017;-77
2022/10/01 00:21:34;;;;;;;17.08;12.13;;;13.00;99.90;;;;;;5198665;28;20033;-77
2022/10/01 00:24:10;;;;;;;12.93;10.02;;;12.90;99.90;;;;;;5202643;28;20031;-74
2022/10/01 00:26:44;;;;;;;14.85;9.75;;;12.90;99.90;;;;;;5214659;28;20021;-74
2022/10/01 00:29:15;;;;;;;13.65;10.40;;;12.90;99.90;;;;;;5197915;28;20513;-75
2022/10/01 00:31:46;;;;;;;15.05;10.60;;;12.90;99.90;;;;;;5196968;28;20032;-73
2022/10/01 00:34:18;;;;;;;12.82;9.55;;;12.90;99.90;;;;;;5216092;28;20043;-73
2022/10/01 00:36:49;;;;;;;14.93;11.15;;;12.90;99.90;;;;;;5217783;28;20039;-73
2022/10/01 00:39:24;;;;;;;14.80;10.63;;;12.90;99.90;;;;;;5217584;28;20021;-74
2022/10/01 00:41:58;;;;;;;14.57;10.65;;;13.00;99.90;;;;;;5218058;28;20028;-74
2022/10/01 00:44:36;;;;;;;15.25;11.25;;;13.00;99.90;;;;;;5219132;28;20032;-74
2022/10/01 00:47:18;;;;;;;11.27;8.98;;;13.00;99.90;;;;;;5214639;28;20024;-74
2022/10/01 00:49:52;;;;;;;10.43;8.10;;;13.00;99.90;;;;;;5196225;28;20064;-74
2022/10/01 00:52:27;;;;;;;12.65;7.15;;;13.00;99.90;;;;;;5197299;28;20027;-75
2022/10/01 00:55:23;;;;;;;10.27;7.60;;;13.00;99.90;;;;;;5200280;28;20018;-74
2022/10/01 00:57:55;;;;;;;12.50;10.02;;;13.10;99.90;;;;;;5208159;28;20023;-75
2022/10/01 01:00:26;;;;;;;14.77;10.05;;;13.10;99.90;;;;;;5217177;28;20040;-76
2022/10/01 01:02:57;;;;;;;15.23;10.80;;;13.20;99.90;;;;;;5217843;28;20032;-74
2022/10/01 01:05:28;;;;;;;14.43;10.70;;;13.10;99.90;;;;;;5210627;28;20045;-74
2022/10/01 01:08:05;;;;;;;14.77;10.93;;;13.00;99.90;;;;;;5217279;28;20033;-74
2022/10/01 01:10:54;;;;;;;14.05;10.77;;;13.00;99.90;;;;;;5210656;28;20032;-74
2022/10/01 01:13:42;;;;;;;13.63;10.50;;;13.00;99.90;;;;;;5199741;28;20029;-75
2022/10/01 01:16:33;;;;;;;18.05;10.65;;;13.00;99.90;;;;;;5217518;28;20491;-74
2022/10/01 01:19:20;;;;;;;14.50;10.52;;;13.00;99.90;;;;;;5210555;28;20075;-74
2022/10/01 01:21:58;;;;;;;17.15;11.57;;;13.00;99.90;;;;;;5200106;28;20029;-74
2022/10/01 01:24:38;;;;;;;15.48;11.75;;;12.90;99.90;;;;;;5212929;28;20613;-74
2022/10/01 01:27:34;;;;;;;16.20;12.32;;;12.80;99.90;;;;;;5184403;28;20032;-74
2022/10/01 01:30:11;;;;;;;17.15;12.70;;;12.80;99.90;;;;;;5218785;28;20021;-74
2022/10/01 01:33:03;;;;;;;17.60;11.50;;;12.80;99.90;;;;;;5222593;28;20020;-75
2022/10/01 01:35:52;;;;;;;14.32;10.77;;;12.80;99.90;;;;;;5206365;28;20029;-76
2022/10/01 01:38:33;;;;;;;17.45;12.55;;;12.90;99.90;;;;;;5183446;28;20037;-74
2022/10/01 01:41:11;;;;;;;17.30;12.35;;;12.90;99.90;;;;;;5232811;28;20041;-75
2022/10/01 01:43:46;;;;;;;18.83;13.35;;;12.80;99.90;;;;;;5241679;28;20066;-76
2022/10/01 01:46:21;;;;;;;15.80;12.63;;;12.80;99.90;;;;;;5220000;28;20662;-74
2022/10/01 01:48:52;;;;;;;22.13;13.02;;;12.80;99.90;;;;;;5202638;28;20038;-76
2022/10/01 01:51:52;;;;;;;18.65;13.55;;;12.70;99.90;;;;;;5217222;28;20029;-73
2022/10/01 01:54:24;;;;;;;19.58;13.25;;;12.70;99.90;;;;;;5201998;28;20033;-73
2022/10/01 01:56:57;;;;;;;22.02;14.55;;;12.60;99.90;;;;;;5183557;28;20033;-74
2022/10/01 01:59:34;;;;;;;20.73;13.65;;;12.60;99.90;;;;;;5217375;28;20020;-75
2022/10/01 02:02:07;;;;;;;22.73;14.98;;;12.60;99.90;;;;;;5228269;28;20036;-75
2022/10/01 02:04:41;;;;;;;22.27;15.05;;;12.60;99.90;;;;;;5200487;28;20885;-74
2022/10/01 02:07:16;;;;;;;;;;;12.60;99.90;;;;;;5188283;28;20017;-74
2022/10/01 02:10:28;;;;;;;20.60;13.70;;;12.50;99.90;;;;;;5198205;28;20397;-74
2022/10/01 02:13:17;;;;;;;22.02;15.68;;;12.50;99.90;;;;;;5198705;28;20037;-74
2022/10/01 02:16:03;;;;;;;20.70;14.20;;;12.50;99.90;;;;;;5197109;28;20055;-75
2022/10/01 02:18:56;;;;;;;24.42;15.00;;;12.40;99.90;;;;;;5198606;28;20035;-76
2022/10/01 02:21:39;;;;;;;21.33;14.63;;;12.50;99.90;;;;;;5199704;28;20025;-75
2022/10/01 02:24:29;;;;;;;23.63;14.55;;;12.50;99.90;;;;;;5219003;28;20060;-77
2022/10/01 02:27:09;;;;;;;20.63;13.00;;;12.40;99.90;;;;;;5199422;28;20039;-75
2022/10/01 02:29:47;;;;;;;16.63;11.55;;;12.50;99.90;;;;;;5216545;28;20358;-74
2022/10/01 02:32:19;;;;;;;16.42;10.07;;;12.50;99.90;;;;;;5200742;28;20651;-77
2022/10/01 02:34:56;;;;;;;18.17;11.30;;;12.40;99.90;;;;;;5221967;28;20463;-74
2022/10/01 02:37:27;;;;;;;14.05;10.02;;;12.50;99.90;;;;;;5216533;28;20033;-74
2022/10/01 02:40:02;;;;;;;12.60;9.60;;;12.50;99.90;;;;;;5223994;28;20033;-74
2022/10/01 02:42:33;;;;;;;;;;;12.50;99.90;;;;;;5209760;28;20017;-75
2022/10/01 02:45:06;;;;;;;12.20;9.07;;;12.50;99.90;;;;;;5216087;28;19908;-74
2022/10/01 02:47:48;;;;;;;13.38;9.38;;;12.50;99.90;;;;;;5216889;28;20025;-74
2022/10/01 02:50:22;;;;;;;12.27;8.68;;;12.50;99.90;;;;;;5216636;28;20035;-74
2022/10/01 02:53:05;;;;;;;11.25;8.15;;;12.50;99.90;;;;;;5200910;28;20025;-75
2022/10/01 02:55:40;;;;;;;11.57;8.50;;;12.50;99.90;;;;;;5226884;28;20021;-73
2022/10/01 02:58:11;;;;;;;12.88;8.80;;;12.60;99.90;;;;;;5213422;28;20501;-74
2022/10/01 03:00:42;;;;;;;15.05;9.50;;;12.60;99.90;;;;;;5207704;28;20033;-76
2022/10/01 03:03:14;;;;;;;11.82;8.75;;;12.70;99.90;;;;;;5232051;28;20039;-73
2022/10/01 03:05:47;;;;;;;11.70;8.20;;;12.70;99.90;;;;;;5206941;28;20277;-74
2022/10/01 03:08:19;;;;;;;15.68;8.98;;;12.80;99.90;;;;;;5198912;28;20021;-75
2022/10/01 03:10:51;;;;;;;11.82;8.50;;;12.80;99.90;;;;;;5215653;28;20411;-73
2022/10/01 03:13:25;;;;;;;10.52;6.88;;;12.80;99.90;;;;;;5213476;28;20040;-75
2022/10/01 03:15:57;;;;;;;13.38;8.93;;;12.80;99.90;;;;;;5213130;28;20135;-74
2022/10/01 03:18:28;;;;;;;12.13;8.48;;;12.90;99.90;;;;;;5198312;28;20241;-75
2022/10/01 03:21:02;;;;;;;11.10;7.68;;;12.90;99.90;;;;;;5197191;28;20028;-74
2022/10/01 03:23:33;;;;;;;15.77;9.40;;;12.90;99.90;;;;;;5215109;28;20054;-74
2022/10/01 03:26:04;;;;;;;11.50;8.50;;;12.90;99.90;;;;;;5215552;28;20029;-75
2022/10/01 03:28:38;;;;;;;12.80;8.02;;;12.90;99.90;;;;;;5215932;28;20028;-74
2022/10/01 03:31:10;;;;;;;14.65;9.73;;;12.90;99.90;;;;;;5215496;28;20025;-74
2022/10/01 03:33:41;;;;;;;13.23;9.57;;;12.90;99.90;;;;;;5217529;28;20216;-74
2022/10/01 03:36:17;;;;;;;14.45;9.80;;;12.80;99.90;;;;;;5215813;28;20023;-76
2022/10/01 03:38:51;;;;;;;14.77;8.98;;;12.80;99.90;;;;;;5215278;28;20028;-74
2022/10/01 03:41:22;;;;;;;13.90;9.73;;;12.80;99.90;;;;;;5208379;28;20040;-75
2022/10/01 03:43:56;;;;;;;12.63;8.98;;;12.80;99.90;;;;;;5201986;28;20353;-75
2022/10/01 03:46:27;;;;;;;17.48;9.77;;;12.80;99.90;;;;;;5200660;28;20032;-76
2022/10/01 03:48:59;;;;;;;13.70;9.02;;;12.80;99.90;;;;;;5197771;28;20900;-75
2022/10/01 03:51:38;;;;;;;13.88;8.95;;;12.90;99.90;;;;;;5214337;28;20036;-76
2022/10/01 03:54:12;;;;;;;12.77;9.10;;;12.90;99.90;;;;;;5181421;28;20042;-76
2022/10/01 03:56:44;;;;;;;13.48;8.88;;;12.90;99.90;;;;;;5181794;28;20037;-76
2022/10/01 03:59:15;;;;;;;13.60;9.07;;;12.90;99.90;;;;;;5215823;28;20459;-76
2022/10/01 04:01:47;;;;;;;14.48;9.20;;;12.90;99.90;;;;;;5214775;28;20033;-75
2022/10/01 04:04:18;;;;;;;12.93;8.70;;;12.90;99.90;;;;;;5202728;28;20027;-75
2022/10/01 04:06:50;;;;;;;13.45;8.43;;;12.90;99.90;;;;;;5194740;28;20024;-74
2022/10/01 04:09:26;;;;;;;11.95;8.32;;;12.90;99.90;;;;;;5214126;28;20025;-74
2022/10/01 04:11:58;;;;;;;11.73;7.90;;;13.00;99.90;;;;;;5197307;28;20040;-74
2022/10/01 04:14:29;;;;;;;13.77;8.25;;;13.00;99.90;;;;;;5215579;28;20164;-74
2022/10/01 04:17:05;;;;;;;12.70;7.80;;;12.90;99.90;;;;;;5185223;28;20041;-74
2022/10/01 04:19:38;;;;;;;11.63;7.20;;;13.00;99.90;;;;;;5183286;28;20029;-74
2022/10/01 04:22:13;;;;;;;10.23;7.37;;;12.90;99.90;;;;;;5197323;28;20037;-75
2022/10/01 04:24:44;;;;;;;11.70;7.85;;;12.90;99.90;;;;;;5188167;28;20267;-74
2022/10/01 04:27:18;;;;;;;15.90;8.43;;;12.90;99.90;;;;;;5161797;28;21013;-74
2022/10/01 04:29:49;;;;;;;10.68;8.27;;;12.90;99.90;;;;;;5208875;28;20030;-75
2022/10/01 04:32:21;;;;;;;11.75;8.48;;;12.90;99.90;;;;;;5199856;28;20273;-74
2022/10/01 04:34:52;;;;;;;11.10;7.65;;;12.80;99.90;;;;;;5200916;28;20047;-76
2022/10/01 04:37:29;;;;;;;15.82;8.80;;;12.70;99.90;;;;;;5175155;28;20029;-75
2022/10/01 04:40:00;;;;;;;12.45;8.85;;;12.60;99.90;;;;;;5220079;28;20025;-76
2022/10/01 04:42:37;;;;;;;13.30;8.63;;;12.50;99.90;;;;;;5219066;28;20020;-76
2022/10/01 04:45:10;;;;;;;12.63;7.85;;;12.40;99.90;;;;;;5219630;28;20358;-76
2022/10/01 04:47:55;;;;;;;14.57;9.80;;;12.30;99.90;;;;;;5219539;28;20040;-77
2022/10/01 04:50:29;;;;;;;13.48;8.50;;;12.20;99.90;;;;;;5217897;28;20033;-76
2022/10/01 04:53:00;;;;;;;14.50;9.48;;;12.20;99.90;;;;;;5201420;28;20041;-76
2022/10/01 04:55:32;;;;;;;13.75;8.65;;;12.20;99.90;;;;;;5199932;28;20021;-77
2022/10/01 04:58:03;;;;;;;14.18;9.70;;;12.20;99.90;;;;;;5218263;28;20023;-77
2022/10/01 05:00:34;;;;;;;14.73;9.00;;;12.10;99.90;;;;;;5218114;28;20040;-77
2022/10/01 05:03:09;;;;;;;14.38;9.10;;;12.10;99.90;;;;;;5212759;28;20063;-78
2022/10/01 05:05:43;;;;;;;11.55;7.97;;;12.10;99.90;;;;;;5198411;28;20063;-75
2022/10/01 05:08:14;;;;;;;14.65;9.45;;;12.00;99.90;;;;;;5183106;28;20473;-76
2022/10/01 05:10:48;;;;;;;13.75;9.80;;;12.00;99.90;;;;;;5185089;28;20044;-77
2022/10/01 05:13:19;;;;;;;15.55;9.43;;;12.00;99.90;;;;;;5199552;28;20600;-77
2022/10/01 05:15:52;;;;;;;14.88;9.38;;;12.00;99.90;;;;;;5183390;28;20501;-76
2022/10/01 05:18:23;;;;;;;16.98;10.07;;;12.00;99.90;;;;;;5218182;28;20025;-78
2022/10/01 05:20:55;;;;;;;18.17;10.43;;;12.00;99.90;;;;;;5200759;28;20040;-76
2022/10/01 05:23:29;;;;;;;15.93;9.35;;;12.00;99.90;;;;;;5218668;28;20021;-76
2022/10/01 05:26:06;;;;;;;15.20;10.48;;;12.10;99.90;;;;;;5200675;28;20620;-76
2022/10/01 05:28:43;;;;;;;18.52;10.77;;;12.10;99.90;;;;;;5200406;28;20479;-76
2022/10/01 05:31:20;;;;;;;16.48;10.32;;;12.10;99.90;;;;;;5195169;28;20559;-78
2022/10/01 05:33:51;;;;;;;17.00;10.93;;;12.20;99.90;;;;;;5214830;28;20025;-76
2022/10/01 05:36:23;;;;;;;16.98;10.77;;;12.20;99.90;;;;;;5190515;28;20710;-78
2022/10/01 05:38:54;;;;;;;15.02;10.35;;;12.20;99.90;;;;;;5176859;28;20040;-77
2022/10/01 05:41:25;;;;;;;17.65;12.35;;;12.30;99.90;;;;;;5197253;28;20072;-78
2022/10/01 05:43:56;;;;;;;18.85;11.85;;;12.30;99.90;;;;;;5210746;28;20499;-78
2022/10/01 05:46:27;;;;;;;18.67;11.20;;;12.20;99.90;;;;;;5191599;28;20044;-78
2022/10/01 05:48:59;;;;;;;16.95;11.60;;;12.20;99.90;;;;;;5191920;28;20025;-78
2022/10/01 05:51:30;;;;;;;18.17;12.63;;;12.30;99.90;;;;;;5181307;28;20030;-78
2022/10/01 05:54:02;;;;;;;18.67;12.55;;;12.30;99.90;;;;;;5189558;28;20048;-78
2022/10/01 05:56:33;;;;;;;18.15;11.80;;;12.40;99.90;;;;;;5209624;28;20245;-79
2022/10/01 05:59:07;;;;;;;15.63;11.55;;;12.40;99.90;;;;;;5192850;28;20493;-78
2022/10/01 06:01:38;;;;;;;16.33;10.68;;;12.50;99.90;;;;;;5192895;28;20051;-78
2022/10/01 06:04:09;;;;;;;19.35;12.18;;;12.60;99.90;;;;;;5215682;28;20027;-77
2022/10/01 06:06:43;;;;;;;16.00;11.45;;;12.70;99.90;;;;;;5195666;28;20043;-79
2022/10/01 06:09:14;;;;;;;15.00;11.30;;;12.50;99.90;;;;;;5198669;28;20040;-80
2022/10/01 06:11:48;;;;;;;16.65;11.40;;;12.60;99.90;;;;;;5217133;28;20029;-79
2022/10/01 06:14:22;;;;;;;19.00;12.27;;;12.60;99.90;;;;;;5206341;28;20033;-81
2022/10/01 06:16:58;;;;;;;18.35;11.48;;;12.60;99.90;;;;;;5202987;28;20022;-80
2022/10/01 06:19:29;;;;;;;18.33;11.88;;;12.70;99.90;;;;;;5219946;28;20035;-78
2022/10/01 06:22:00;;;;;;;17.88;12.00;;;12.70;99.90;;;;;;5215745;28;20034;-80
2022/10/01 06:24:32;;;;;;;18.17;12.57;;;12.70;99.90;;;;;;5209274;28;20035;-79
2022/10/01 06:27:03;;;;;;;16.88;11.25;;;12.80;99.90;;;;;;5218394;28;20067;-79
2022/10/01 06:29:37;;;;;;;16.40;10.60;;;12.70;99.90;;;;;;5217894;28;20039;-79
2022/10/01 06:32:17;;;;;;;21.02;12.00;;;12.70;99.90;;;;;;5194239;28;20045;-78
2022/10/01 06:34:48;;;;;;;15.23;10.93;;;12.70;99.90;;;;;;5212371;28;20025;-79
2022/10/01 06:37:19;;;;;;;14.23;9.80;;;12.70;99.90;;;;;;5216912;28;20035;-79
2022/10/01 06:39:53;;;;;;;16.25;10.35;;;12.80;99.90;;;;;;5210488;28;20031;-77
2022/10/01 06:42:27;;;;;;;25.20;16.83;;;12.80;99.90;;;;;;5200808;28;20047;-78
2022/10/01 06:44:58;;;;;;;14.60;10.45;;;12.70;99.90;;;;;;5177405;28;20255;-78
2022/10/01 06:47:29;;;;;;;14.07;9.82;;;12.80;99.90;;;;;;5210659;28;20024;-76
2022/10/01 06:50:00;;;;;;;14.30;10.15;;;12.80;99.90;;;;;;5198965;28;20264;-76
2022/10/01 06:52:47;;;;;;;12.93;8.90;;;12.90;99.90;;;;;;5197989;28;20024;-77
2022/10/01 06:55:24;;;;;;;14.98;10.35;;;13.10;99.90;;;;;;5169531;28;20039;-78
2022/10/01 06:58:00;;;;;;;10.80;8.05;;;13.30;99.90;;;;;;5204905;28;20033;-77
2022/10/01 07:00:34;;;;;;;12.10;8.63;;;13.40;99.90;;;;;;5214946;28;20037;-76
2022/10/01 07:03:11;;;;;;;12.53;8.33;;;13.60;99.90;;;;;;5196806;28;20044;-76
2022/10/01 07:05:43;;;;;;;14.30;8.02;;;13.80;99.90;;;;;;5203099;28;20048;-78
2022/10/01 07:08:15;;;;;;;13.35;8.88;;;14.00;99.90;;;;;;5204712;28;20479;-76
2022/10/01 07:10:51;;;;;;;11.70;8.68;;;14.20;99.90;;;;;;5215564;28;20479;-79
2022/10/01 07:13:22;;;;;;;11.05;8.38;;;14.40;99.90;;;;;;5227505;28;20478;-77
2022/10/01 07:15:56;;;;;;;9.52;7.65;;;14.50;99.90;;;;;;5199431;28;20032;-77
2022/10/01 07:18:30;;;;;;;9.07;7.57;;;14.60;99.90;;;;;;5216660;28;20017;-77
2022/10/01 07:21:01;;;;;;;10.63;7.97;;;14.70;99.90;;;;;;5216649;28;20056;-77
2022/10/01 07:23:39;;;;;;;9.10;6.82;;;14.80;99.90;;;;;;5217673;28;20043;-77
2022/10/01 07:26:10;;;;;;;10.63;7.88;;;15.00;99.90;;;;;;5198830;28;20043;-77
2022/10/01 07:28:45;;;;;;;10.38;7.22;;;15.00;99.90;;;;;;5218467;28;20031;-76
2022/10/01 07:31:19;;;;;;;11.00;7.65;;;15.10;99.90;;;;;;5167826;28;20551;-75
2022/10/01 07:33:56;;;;;;;12.02;7.82;;;15.20;99.90;;;;;;5218237;28;20067;-75
2022/10/01 07:36:29;;;;;;;11.75;7.43;;;15.30;99.90;;;;;;5220536;28;20035;-75
2022/10/01 07:39:00;;;;;;;10.52;7.72;;;15.50;99.90;;;;;;5184097;28;20037;-75
2022/10/01 07:41:32;;;;;;;9.57;7.80;;;15.60;99.90;;;;;;5242524;28;20058;-76
2022/10/01 07:44:03;;;;;;;10.60;8.18;;;15.60;99.90;;;;;;5222634;28;20021;-76
2022/10/01 07:46:35;;;;;;;9.85;7.88;;;15.50;99.90;;;;;;5240767;28;20038;-76
2022/10/01 07:49:07;;;;;;;11.20;8.45;;;15.50;99.90;;;;;;5207068;28;20029;-76
2022/10/01 07:51:38;;;;;;;10.82;7.97;;;15.70;99.90;;;;;;5218394;28;20029;-76
2022/10/01 07:54:10;;;;;;;7.55;6.50;;;15.80;99.90;;;;;;5216975;28;20036;-76
2022/10/01 07:56:41;;;;;;;8.48;6.82;;;16.10;99.90;;;;;;5199278;28;20051;-76
2022/10/01 07:59:13;;;;;;;7.25;6.22;;;16.30;99.90;;;;;;5199096;28;20023;-76
2022/10/01 08:01:51;;;;;;;7.43;5.97;;;16.40;99.90;;;;;;5193742;28;20034;-77
2022/10/01 08:07:14;;;;;;;8.48;6.35;;;16.60;99.90;;;;;;5201217;28;20125;-76
2022/10/01 08:09:45;;;;;;;9.35;5.53;;;16.90;99.90;;;;;;5215568;28;20027;-77
2022/10/01 08:12:16;;;;;;;5.80;5.10;;;17.00;99.90;;;;;;5216555;28;20499;-77
2022/10/01 08:14:47;;;;;;;10.15;5.03;;;17.00;99.90;;;;;;5216133;28;20039;-77
2022/10/01 08:17:21;;;;;;;5.75;4.55;;;17.10;99.90;;;;;;5216125;28;20032;-77
2022/10/01 08:19:56;;;;;;;5.75;5.00;;;17.10;99.90;;;;;;5190407;28;20402;-77
2022/10/01 08:22:27;;;;;;;7.93;5.50;;;17.30;99.90;;;;;;5218934;28;20493;-77
2022/10/01 08:24:58;;;;;;;7.00;5.70;;;17.30;99.90;;;;;;5216304;28;20036;-77
2022/10/01 08:27:29;;;;;;;6.95;5.20;;;17.30;99.90;;;;;;5218974;28;20096;-78
2022/10/01 08:30:01;;;;;;;6.40;5.65;;;17.40;99.90;;;;;;5217645;28;20028;-77
2022/10/01 08:32:32;;;;;;;6.30;4.97;;;17.40;99.90;;;;;;5199705;28;20051;-79
2022/10/01 08:35:06;;;;;;;4.88;4.25;;;17.40;99.90;;;;;;5198326;28;20039;-77
2022/10/01 08:37:37;;;;;;;5.40;4.13;;;17.40;99.90;;;;;;5197289;28;20037;-77
2022/10/01 08:40:09;;;;;;;4.82;4.03;;;16.70;99.90;;;;;;5206259;28;20467;-76
2022/10/01 08:42:47;;;;;;;4.82;4.00;;;16.30;99.90;;;;;;5192993;28;20070;-76
2022/10/01 08:45:35;;;;;;;4.93;3.75;;;16.20;99.90;;;;;;5206002;28;20028;-76
2022/10/01 08:48:15;;;;;;;7.60;3.90;;;16.20;99.90;;;;;;5195195;28;20021;-77
2022/10/01 08:50:56;;;;;;;4.47;3.72;;;16.40;99.90;;;;;;5213090;28;20035;-78
2022/10/01 08:53:34;;;;;;;4.05;3.65;;;16.40;99.90;;;;;;5207903;28;20318;-76
2022/10/01 08:56:46;;;;;;;4.05;3.65;;;16.60;99.90;;;;;;5201881;28;20035;-76
2022/10/01 08:59:33;;;;;;;5.65;3.47;;;16.10;99.90;;;;;;5072305;29;20039;-77
2022/10/01 09:02:24;;;;;;;3.72;3.08;;;15.80;99.90;;;;;;5086641;29;20234;-76
2022/10/01 09:04:58;;;;;;;4.35;3.65;;;16.00;99.90;;;;;;5078709;29;20028;-77
2022/10/01 09:07:54;;;;;;;3.92;3.53;;;16.20;99.90;;;;;;5077823;29;20035;-76
2022/10/01 09:10:45;;;;;;;3.85;3.28;;;16.40;99.90;;;;;;5092322;29;20024;-77
2022/10/01 09:13:19;;;;;;;6.05;5.45;;;16.60;99.90;;;;;;5077974;29;20489;-76
2022/10/01 09:15:56;;;;;;;7.40;6.05;;;16.50;99.90;;;;;;5093295;29;20036;-78
2022/10/01 09:18:27;;;;;;;6.72;5.50;;;16.50;99.90;;;;;;5093218;29;20043;-76
2022/10/01 09:21:02;;;;;;;9.10;6.40;;;16.50;99.90;;;;;;5096020;29;20028;-77
2022/10/01 09:23:49;;;;;;;8.70;6.70;;;16.60;99.90;;;;;;5096853;29;20043;-77
2022/10/01 09:26:21;;;;;;;9.35;6.82;;;16.60;99.90;;;;;;5095163;29;20037;-76
2022/10/01 09:28:54;;;;;;;9.18;6.85;;;16.50;99.90;;;;;;5077547;29;20039;-76
2022/10/01 09:31:39;;;;;;;8.02;6.97;;;16.20;99.90;;;;;;5086729;29;20044;-76
2022/10/01 09:34:23;;;;;;;10.40;7.20;;;16.20;99.90;;;;;;5114754;28;20052;-76
2022/10/01 09:37:29;;;;;;;11.07;6.67;;;16.10;99.90;;;;;;5187701;28;20363;-76
2022/10/01 09:40:37;;;;;;;9.98;8.02;;;16.30;99.90;;;;;;5202452;28;20021;-76
2022/10/01 09:43:12;;;;;;;9.10;7.57;;;16.20;99.90;;;;;;5239134;28;20044;-76
2022/10/01 09:45:44;;;;;;;10.88;8.48;;;16.20;99.90;;;;;;5212466;28;20020;-77
2022/10/01 09:48:37;;;;;;;12.93;8.40;;;16.20;99.90;;;;;;5197477;28;20029;-76
2022/10/01 09:51:33;;;;;;;9.88;7.25;;;16.20;99.90;;;;;;5219462;28;20028;-76
2022/10/01 09:54:23;;;;;;;9.82;7.25;;;15.90;99.90;;;;;;5217181;28;20023;-76
2022/10/01 09:57:11;;;;;;;9.32;7.47;;;16.00;99.90;;;;;;5217432;28;20023;-76
2022/10/01 09:59:56;;;;;;;9.32;7.28;;;16.00;99.90;;;;;;5204418;28;20032;-75
2022/10/01 10:02:38;;;;;;;;;;;16.40;99.90;;;;;;5222555;28;20043;-77
2022/10/01 10:05:15;;;;;;;8.75;7.00;;;16.30;99.90;;;;;;5206588;28;19927;-76
2022/10/01 10:08:09;;;;;;;10.32;7.95;;;16.20;99.90;;;;;;5194587;28;20117;-75
2022/10/01 10:10:50;;;;;;;9.23;7.25;;;16.20;99.90;;;;;;5215911;28;20051;-76
2022/10/01 10:13:48;;;;;;;12.27;7.07;;;16.20;99.90;;;;;;5194554;28;20063;-75
2022/10/01 10:16:26;;;;;;;9.52;6.00;;;16.50;99.90;;;;;;5179249;28;20480;-75
2022/10/01 10:19:01;;;;;;;10.70;7.15;;;16.80;99.90;;;;;;5197156;28;20037;-75
2022/10/01 10:21:36;;;;;;;7.25;6.32;;;17.40;99.90;;;;;;5187652;28;20037;-77
2022/10/01 10:24:25;;;;;;;7.20;5.90;;;17.70;99.90;;;;;;5216646;28;20459;-75
2022/10/01 10:26:58;;;;;;;7.43;5.50;;;17.80;99.90;;;;;;5209579;28;20059;-75
2022/10/01 10:29:35;;;;;;;6.97;5.90;;;17.30;99.90;;;;;;5217232;28;20039;-75
2022/10/01 10:32:26;;;;;;;9.95;6.55;;;17.40;99.90;;;;;;5209412;28;20035;-75
2022/10/01 10:35:03;;;;;;;7.32;6.15;;;17.60;99.90;;;;;;5202842;28;20025;-77
2022/10/01 10:37:36;;;;;;;7.38;5.60;;;17.80;99.90;;;;;;5197314;28;20021;-75
2022/10/01 10:40:19;;;;;;;5.90;5.30;;;18.10;99.90;;;;;;5214673;28;20040;-75
2022/10/01 10:42:55;;;;;;;6.43;5.45;;;18.60;99.90;;;;;;5216437;28;20037;-75
2022/10/01 10:45:36;;;;;;;7.32;5.35;;;18.90;99.90;;;;;;5200855;28;20617;-76
2022/10/01 10:48:17;;;;;;;5.95;5.22;;;19.10;99.90;;;;;;5221310;28;20199;-75
2022/10/01 10:50:48;;;;;;;6.20;4.55;;;19.30;99.90;;;;;;5220710;28;20025;-75
2022/10/01 10:53:26;;;;;;;5.30;4.80;;;19.50;99.90;;;;;;5184720;28;20745;-75
2022/10/01 10:56:02;;;;;;;5.07;3.90;;;19.60;99.90;;;;;;5201437;28;20035;-76
2022/10/01 10:58:41;;;;;;;5.28;4.57;;;19.80;99.90;;;;;;5210069;28;20025;-74
2022/10/01 11:01:16;;;;;;;5.90;4.65;;;20.20;99.90;;;;;;5207124;28;20063;-75
2022/10/01 11:03:52;;;;;;;9.07;4.47;;;20.60;99.90;;;;;;5189890;28;20436;-75
2022/10/01 11:06:26;;;;;;;6.68;5.07;;;21.10;99.90;;;;;;5190513;28;20045;-75
2022/10/01 11:09:08;;;;;;;4.85;4.35;;;21.00;99.90;;;;;;5216120;28;20037;-75
2022/10/01 11:11:54;;;;;;;4.32;3.83;;;20.70;99.90;;;;;;5212400;28;20047;-75
2022/10/01 11:14:50;;;;;;;5.05;4.55;;;20.80;99.90;;;;;;5188230;28;20030;-75
2022/10/01 11:17:59;;;;;;;8.27;4.43;;;20.80;99.90;;;;;;5209405;28;20038;-76
2022/10/01 11:21:00;;;;;;;6.35;4.95;;;21.00;99.90;;;;;;5193995;28;20179;-78
2022/10/01 11:23:49;;;;;;;8.02;4.30;;;21.20;99.90;;;;;;5191629;28;20056;-75
2022/10/01 11:26:28;;;;;;;5.28;4.78;;;20.40;99.90;;;;;;5181766;28;20032;-76
2022/10/01 11:29:25;;;;;;;4.25;3.83;;;20.10;99.90;;;;;;5214530;28;20059;-75
2022/10/01 11:32:15;;;;;;;5.35;4.57;;;20.30;99.90;;;;;;5198248;28;20037;-75
2022/10/01 11:34:52;;;;;;;4.80;4.13;;;20.40;99.90;;;;;;5181499;28;20033;-77
2022/10/01 11:37:53;;;;;;;4.38;3.90;;;20.40;99.90;;;;;;5201872;28;20023;-75
2022/10/01 11:40:42;;;;;;;4.72;3.80;;;20.70;99.90;;;;;;5199086;28;20036;-75
2022/10/01 11:43:16;;;;;;;4.75;3.78;;;21.30;99.90;;;;;;5214691;28;20033;-75
2022/10/01 11:45:55;;;;;;;4.43;3.47;;;21.30;99.90;;;;;;5195838;28;20029;-75
2022/10/01 11:48:45;;;;;;;7.95;3.60;;;21.40;99.90;;;;;;5177068;28;20029;-75
2022/10/01 11:51:22;;;;;;;4.20;3.63;;;21.20;99.90;;;;;;5214380;28;20020;-75
2022/10/01 11:54:00;;;;;;;3.53;3.20;;;21.60;99.90;;;;;;5205787;28;20039;-77
2022/10/01 11:59:49;;;;;;;6.10;4.32;;;22.10;99.90;;;;;;5194203;28;20537;-76
2022/10/01 12:02:34;;;;;;;4.38;3.85;;;21.40;99.90;;;;;;5217334;28;20040;-76
2022/10/01 12:05:15;;;;;;;4.82;4.07;;;21.40;99.90;;;;;;5205303;28;20037;-77
2022/10/01 12:08:10;;;;;;;4.57;3.88;;;21.10;99.90;;;;;;5206150;28;20032;-77
2022/10/01 12:11:11;;;;;;;5.50;4.53;;;21.60;99.90;;;;;;5196642;28;20029;-75
2022/10/01 12:14:05;;;;;;;4.82;3.42;;;22.00;99.90;;;;;;5187489;28;20394;-76
2022/10/01 12:16:45;;;;;;;4.60;3.17;;;22.10;99.90;;;;;;5194788;28;20028;-77
2022/10/01 12:19:31;;;;;;;4.18;3.78;;;21.80;99.90;;;;;;5185619;28;20017;-75
2022/10/01 12:22:19;;;;;;;4.63;3.70;;;21.50;99.90;;;;;;5192988;28;20047;-76
2022/10/01 12:24:55;;;;;;;3.92;3.15;;;20.80;99.90;;;;;;5190406;28;20037;-74
2022/10/01 12:27:38;;;;;;;3.67;3.35;;;20.80;99.90;;;;;;5202727;28;20044;-77
2022/10/01 12:30:15;;;;;;;3.53;3.22;;;21.00;99.90;;;;;;5199535;28;20025;-76
2022/10/01 12:32:58;;;;;;;4.15;3.20;;;20.80;99.90;;;;;;5223082;28;20036;-75
2022/10/01 12:35:38;;;;;;;4.07;3.33;;;21.10;99.90;;;;;;5198381;28;20546;-76
2022/10/01 12:38:31;;;;;;;3.58;3.28;;;21.20;99.90;;;;;;5183417;28;20025;-77
2022/10/01 12:41:21;;;;;;;4.00;3.17;;;21.20;99.90;;;;;;5216252;28;20040;-75
2022/10/01 12:44:14;;;;;;;4.25;2.78;;;21.00;99.90;;;;;;5240048;28;20039;-75
2022/10/01 12:47:20;;;;;;;3.95;3.47;;;20.90;99.90;;;;;;5240086;28;20025;-77
2022/10/01 12:50:28;;;;;;;3.78;3.40;;;20.90;99.90;;;;;;5206556;28;20037;-77
2022/10/01 12:53:13;;;;;;;4.35;3.95;;;20.90;99.90;;;;;;5218633;28;20025;-76
2022/10/01 12:56:10;;;;;;;5.25;2.88;;;21.10;99.90;;;;;;5202104;28;20032;-76
2022/10/01 12:59:21;;;;;;;3.20;2.90;;;21.50;99.90;;;;;;5165632;28;20534;-75
2022/10/01 13:02:19;;;;;;;5.78;2.92;;;21.60;99.90;;;;;;5212726;28;20050;-76
2022/10/01 13:04:56;;;;;;;3.47;3.17;;;21.70;99.90;;;;;;5233037;28;20040;-75
2022/10/01 13:07:27;;;;;;;3.60;3.30;;;21.60;99.90;;;;;;5243190;28;20046;-75
2022/10/01 13:10:04;;;;;;;3.38;3.08;;;21.40;99.90;;;;;;5229367;28;20024;-76
2022/10/01 13:12:47;;;;;;;3.25;2.97;;;20.80;99.90;;;;;;5187731;28;20037;-76
2022/10/01 13:15:26;;;;;;;3.50;3.20;;;20.60;99.90;;;;;;5222281;28;20055;-76
2022/10/01 13:18:21;;;;;;;3.38;3.08;;;20.80;99.90;;;;;;5217710;28;20047;-77
2022/10/01 13:20:59;;;;;;;3.70;2.92;;;21.30;99.90;;;;;;5205932;28;20039;-77
2022/10/01 13:23:43;;;;;;;5.20;3.08;;;21.40;99.90;;;;;;5222875;28;20041;-76
2022/10/01 13:26:32;;;;;;;3.35;2.13;;;20.60;99.90;;;;;;5203535;28;20237;-77
2022/10/01 13:29:32;;;;;;;3.58;2.00;;;20.90;99.90;;;;;;5222740;28;20567;-76
2022/10/01 13:32:28;;;;;;;2.33;1.40;;;20.40;99.90;;;;;;5206611;28;20037;-76
2022/10/01 13:35:19;;;;;;;1.80;1.70;;;19.50;99.90;;;;;;5224509;28;20024;-75
2022/10/01 13:37:51;;;;;;;1.80;1.70;;;19.40;99.90;;;;;;5224493;28;20025;-75
2022/10/01 13:40:33;;;;;;;4.75;1.30;;;19.00;99.90;;;;;;5203366;28;20033;-75